Portada
METAR-TAF:

METAR-TAF

Aeropuertos :

Aeropuerto de Badajoz

Badajoz, España

latitud: 38-53N, longitud: 006-49W, altitud: 185 m

Observación

El informe se hizo hace 29 minutos, a las 12:30 UTC
Viento 11 kt del este, variando entre este-noreste y sureste
Temperatura 16°C
Humedad 27%
Presión 1031 hPa
Visibilidad 10 km o más
sin nubes por debajo de 1500 m y sin presencia de cumulonimbus.

METAR: LEBZ 291230Z 09011KT 070V140 CAVOK 16/M03 Q1031

Hora: 13:59 (12:59 UTC)

Pronóstico

El informe se hizo hace 4 horas y 59 minutos, a las 08:00 UTC
Pronóstico válido del 29 a las 09 UTC al 30 a las 09 UTC
Viento 10 kt del este
Visibilidad 10 km o más
sin nubes por debajo de 1500 m y sin presencia de cumulonimbus.
Evolucionando progresivamente
del 29 a las 17 UTC al 29 a las 19 UTC
Viento 2 kt con dirección variable

TAF: LEBZ 290800Z 2909/3009 09010KT CAVOK TX18/2915Z TN02/3007Z BECMG 2917/2919 VRB02KT

Observaciones y pronósticos meteorológicos de más de 4000 aeropuertos (mensajes METAR y TAF).

Los puntos amarillos y rojos representan las estaciones disponibles.

Ponga el ratón en el punto deseado para ver el nombre de la estación.

Haga clic para ver las observaciones y los pronósticos meteorológicos.

Para cambiar el mapa : haga clic en los botones verdes con una cruz de color negro para hacer un zoom, en el botón verde con un guión para alejar o en las flechas verdes para mapas adyacentes.


METAR-TAF: